createdAt,value
2018-06-02T00:02:14.183Z,20.75
2018-06-02T00:04:42.582Z,20.77
2018-06-02T00:07:11.001Z,20.70
2018-06-02T00:09:39.377Z,20.64
2018-06-02T00:12:07.948Z,20.76
2018-06-02T00:14:36.323Z,20.78
2018-06-02T00:17:04.890Z,20.76
2018-06-02T00:19:33.296Z,20.74
2018-06-02T00:22:01.670Z,20.80
2018-06-02T00:24:30.093Z,20.76
2018-06-02T00:26:58.460Z,20.76
2018-06-02T00:29:26.837Z,20.72
2018-06-02T00:31:55.220Z,20.68
2018-06-02T00:34:23.601Z,20.68
2018-06-02T00:36:51.988Z,20.69
2018-06-02T00:39:20.466Z,20.75
2018-06-02T00:41:48.848Z,20.74
2018-06-02T00:44:17.226Z,20.69
2018-06-02T00:46:45.598Z,20.68
2018-06-02T00:49:14.032Z,20.63
2018-06-02T00:51:42.413Z,20.67
2018-06-02T00:54:10.488Z,20.62
2018-06-02T00:56:38.871Z,20.58
2018-06-02T00:59:07.244Z,20.57
2018-06-02T01:01:35.705Z,20.54
2018-06-02T01:04:04.076Z,20.59
2018-06-02T01:06:32.526Z,20.66
2018-06-02T01:09:00.906Z,20.62
2018-06-02T01:11:29.057Z,20.65
2018-06-02T01:13:57.469Z,20.67
2018-06-02T01:16:25.854Z,20.72
2018-06-02T01:18:54.231Z,20.72
2018-06-02T01:21:22.621Z,20.74
2018-06-02T01:23:51.038Z,20.62
2018-06-02T01:26:19.423Z,20.63
2018-06-02T01:28:47.852Z,20.56
2018-06-02T01:31:16.237Z,20.65
2018-06-02T01:33:44.610Z,20.70
2018-06-02T01:36:12.993Z,20.72
2018-06-02T01:38:41.366Z,20.78
2018-06-02T01:41:09.770Z,20.80
2018-06-02T01:43:39.792Z,20.86
2018-06-02T01:46:08.179Z,20.85
2018-06-02T01:48:36.558Z,20.84
2018-06-02T01:51:04.961Z,20.88
2018-06-02T01:53:33.341Z,20.91
2018-06-02T01:56:01.715Z,20.93
2018-06-02T01:58:30.098Z,20.92
2018-06-02T02:00:58.474Z,20.96
2018-06-02T02:03:26.865Z,20.99
2018-06-02T02:05:55.247Z,21.01
2018-06-02T02:08:23.615Z,21.05
2018-06-02T02:10:52.017Z,21.05
2018-06-02T02:13:20.381Z,21.03
2018-06-02T02:15:48.757Z,21.03
2018-06-02T02:18:17.135Z,21.00
2018-06-02T02:20:45.703Z,20.90
2018-06-02T02:23:14.090Z,20.75
2018-06-02T02:25:42.476Z,20.76
2018-06-02T02:28:10.873Z,20.72
2018-06-02T02:30:39.255Z,20.70
2018-06-02T02:33:07.809Z,20.65
2018-06-02T02:35:36.241Z,20.64
2018-06-02T02:38:04.359Z,20.63
2018-06-02T02:40:32.731Z,20.66
2018-06-02T02:43:01.107Z,20.62
2018-06-02T02:45:29.478Z,20.65
2018-06-02T02:47:57.850Z,20.71
2018-06-02T02:50:26.234Z,20.73
2018-06-02T02:52:54.610Z,20.73
2018-06-02T02:55:23.015Z,20.72
2018-06-02T02:57:51.393Z,20.71
2018-06-02T03:00:19.765Z,20.73
2018-06-02T03:02:48.146Z,20.74
2018-06-02T03:05:16.541Z,19.84
2018-06-02T03:07:44.941Z,20.70
2018-06-02T03:10:13.394Z,20.71
2018-06-02T03:12:41.763Z,20.77
2018-06-02T03:15:10.264Z,20.74
2018-06-02T03:17:38.696Z,20.69
2018-06-02T03:20:07.253Z,20.73
2018-06-02T03:22:35.633Z,20.71
2018-06-02T03:25:04.022Z,20.76
2018-06-02T03:27:32.430Z,20.76
2018-06-02T03:30:00.796Z,20.72
2018-06-02T03:32:29.427Z,20.74
2018-06-02T03:34:57.829Z,20.76
2018-06-02T03:37:26.202Z,20.70
2018-06-02T03:39:54.584Z,20.77
2018-06-02T03:42:22.961Z,20.82
2018-06-02T03:44:51.365Z,20.74
2018-06-02T03:47:19.742Z,20.77
2018-06-02T03:49:48.147Z,20.77
2018-06-02T03:52:16.526Z,20.72
2018-06-02T03:54:44.917Z,20.73
2018-06-02T03:57:13.286Z,20.75
2018-06-02T03:59:41.657Z,20.81
2018-06-02T04:02:10.036Z,20.77
2018-06-02T04:04:38.429Z,20.83
2018-06-02T04:07:06.830Z,20.84
2018-06-02T04:09:35.237Z,20.88
2018-06-02T04:12:03.624Z,21.01
2018-06-02T04:14:32.010Z,21.01
2018-06-02T04:17:00.407Z,21.08
2018-06-02T04:19:28.795Z,21.09
2018-06-02T04:21:57.165Z,21.18
2018-06-02T04:24:25.543Z,21.12
2018-06-02T04:26:53.922Z,21.14
2018-06-02T04:29:22.292Z,21.17
2018-06-02T04:31:50.718Z,21.24
2018-06-02T04:34:19.100Z,21.28
2018-06-02T04:36:47.490Z,21.29
2018-06-02T04:39:15.889Z,21.30
2018-06-02T04:41:44.276Z,21.36
2018-06-02T04:44:12.665Z,21.39
2018-06-02T04:46:41.048Z,21.37
2018-06-02T04:49:09.451Z,21.48
2018-06-02T04:51:37.849Z,21.44
2018-06-02T04:54:06.240Z,21.40
2018-06-02T04:56:34.621Z,21.43
2018-06-02T04:59:02.999Z,21.49
2018-06-02T05:01:31.414Z,21.60
2018-06-02T05:03:59.797Z,21.76
2018-06-02T05:06:28.170Z,21.70
2018-06-02T05:08:56.551Z,21.69
2018-06-02T05:11:24.927Z,21.83
2018-06-02T05:13:53.295Z,21.99
2018-06-02T05:16:21.664Z,22.12
2018-06-02T05:18:50.061Z,22.06
2018-06-02T05:21:18.455Z,22.12
2018-06-02T05:23:46.826Z,22.15
2018-06-02T05:26:15.238Z,22.21
2018-06-02T05:28:43.651Z,22.24
2018-06-02T05:31:12.021Z,22.32
2018-06-02T05:33:40.420Z,22.33
2018-06-02T05:36:08.820Z,22.48
2018-06-02T05:38:37.196Z,22.63
2018-06-02T05:41:05.573Z,22.59
2018-06-02T05:43:33.965Z,22.47
2018-06-02T05:46:02.425Z,22.47
2018-06-02T05:48:30.945Z,22.57
2018-06-02T05:50:59.328Z,22.58
2018-06-02T05:53:27.721Z,22.60
2018-06-02T05:55:56.098Z,22.51
2018-06-02T05:58:24.485Z,22.64
2018-06-02T06:00:52.860Z,22.56
2018-06-02T06:03:21.233Z,22.56
2018-06-02T06:05:49.625Z,22.59
2018-06-02T06:08:18.009Z,22.66
2018-06-02T06:10:46.381Z,22.66
2018-06-02T06:13:14.759Z,22.80
2018-06-02T06:15:43.135Z,22.87
2018-06-02T06:18:11.517Z,22.93
2018-06-02T06:20:39.897Z,23.02
2018-06-02T06:23:08.272Z,23.06
2018-06-02T06:25:36.657Z,23.06
2018-06-02T06:28:05.569Z,22.95
2018-06-02T06:30:34.188Z,22.92
2018-06-02T06:33:02.677Z,22.76
2018-06-02T06:35:31.168Z,22.80
2018-06-02T06:37:59.537Z,22.86
2018-06-02T06:40:27.925Z,22.91
2018-06-02T06:42:56.335Z,22.94
2018-06-02T06:45:24.988Z,22.74
2018-06-02T06:47:53.376Z,22.70
2018-06-02T06:50:21.753Z,22.83
2018-06-02T06:52:50.151Z,22.89
2018-06-02T06:55:18.708Z,22.97
2018-06-02T06:57:47.196Z,22.92
2018-06-02T07:00:15.731Z,22.83
2018-06-02T07:02:44.107Z,22.94
2018-06-02T07:05:12.502Z,21.88
2018-06-02T07:07:40.876Z,23.03
2018-06-02T07:10:09.282Z,22.24
2018-06-02T07:12:37.652Z,23.03
2018-06-02T07:15:06.080Z,22.71
2018-06-02T07:17:34.459Z,23.23
2018-06-02T07:20:02.846Z,23.40
2018-06-02T07:22:31.225Z,23.48
2018-06-02T07:24:59.605Z,23.44
2018-06-02T07:27:28.019Z,23.50
2018-06-02T07:29:56.571Z,23.52
2018-06-02T07:32:24.960Z,23.55
2018-06-02T07:34:53.362Z,23.52
2018-06-02T07:37:21.741Z,23.39
2018-06-02T07:39:50.153Z,23.18
2018-06-02T07:42:18.537Z,23.38
2018-06-02T07:44:46.973Z,23.12
2018-06-02T07:47:15.360Z,23.18
2018-06-02T07:49:43.746Z,23.32
2018-06-02T07:52:12.320Z,23.23
2018-06-02T07:54:40.687Z,22.97
2018-06-02T07:57:09.057Z,23.03
2018-06-02T07:59:37.612Z,22.90
2018-06-02T08:02:05.999Z,22.95
2018-06-02T08:04:34.373Z,22.76
2018-06-02T08:07:02.820Z,22.78
2018-06-02T08:09:31.201Z,22.94
2018-06-02T08:11:59.609Z,23.00
2018-06-02T08:14:27.988Z,22.92
2018-06-02T08:16:56.358Z,22.78
2018-06-02T08:19:24.799Z,22.83
2018-06-02T08:21:53.189Z,22.82
2018-06-02T08:24:21.575Z,22.64
2018-06-02T08:26:49.995Z,22.54
2018-06-02T08:29:18.374Z,22.56
2018-06-02T08:31:46.749Z,22.70
2018-06-02T08:34:15.147Z,22.89
2018-06-02T08:36:43.551Z,22.96
2018-06-02T08:39:11.933Z,22.95
2018-06-02T08:41:40.308Z,22.97
2018-06-02T08:44:08.692Z,23.21
2018-06-02T08:46:37.092Z,23.34
2018-06-02T08:49:05.673Z,23.43
2018-06-02T08:51:34.043Z,23.54
2018-06-02T08:54:02.484Z,23.63
2018-06-02T08:56:31.012Z,23.65
2018-06-02T08:58:59.397Z,23.78
2018-06-02T09:01:27.781Z,23.60
2018-06-02T09:03:56.156Z,23.51
2018-06-02T09:06:24.527Z,23.58
2018-06-02T09:08:52.907Z,23.56
2018-06-02T09:11:21.295Z,23.88
2018-06-02T09:13:49.738Z,24.11
2018-06-02T09:16:18.138Z,24.04
2018-06-02T09:18:46.524Z,24.30
2018-06-02T09:21:14.933Z,24.27
2018-06-02T09:23:43.317Z,24.29
2018-06-02T09:26:11.706Z,24.39
2018-06-02T09:28:40.141Z,24.53
2018-06-02T09:31:08.532Z,24.49
2018-06-02T09:33:36.909Z,24.29
2018-06-02T09:36:04.724Z,24.69
2018-06-02T09:38:33.109Z,24.62
2018-06-02T09:41:01.481Z,24.62
2018-06-02T09:43:29.875Z,24.80
2018-06-02T09:45:58.264Z,24.91
2018-06-02T09:48:26.634Z,24.82
2018-06-02T09:50:55.205Z,24.85
2018-06-02T09:53:23.025Z,24.95
2018-06-02T09:55:51.446Z,25.11
2018-06-02T09:58:19.814Z,25.31
2018-06-02T10:00:48.174Z,25.41
2018-06-02T10:03:16.585Z,25.43
2018-06-02T10:05:44.985Z,25.00
2018-06-02T10:08:13.365Z,24.59
2018-06-02T10:10:41.747Z,24.58
2018-06-02T10:13:10.124Z,24.59
2018-06-02T10:15:38.174Z,24.74
2018-06-02T10:18:06.621Z,24.53
2018-06-02T10:20:35.012Z,24.32
2018-06-02T10:23:03.565Z,24.20
2018-06-02T10:25:31.956Z,24.61
2018-06-02T10:28:00.321Z,24.76
2018-06-02T10:30:28.908Z,24.57
2018-06-02T10:32:57.310Z,24.15
2018-06-02T10:35:25.736Z,24.46
2018-06-02T10:37:54.254Z,24.79
2018-06-02T10:40:22.709Z,24.72
2018-06-02T10:42:51.098Z,24.74
2018-06-02T10:45:19.513Z,24.32
2018-06-02T10:47:47.889Z,24.27
2018-06-02T10:50:16.320Z,24.43
2018-06-02T10:52:44.709Z,24.29
2018-06-02T10:55:13.160Z,24.65
2018-06-02T10:57:41.558Z,24.54
2018-06-02T11:00:09.965Z,24.21
2018-06-02T11:02:38.364Z,24.33
2018-06-02T11:05:06.786Z,24.52
2018-06-02T11:07:35.188Z,24.82
2018-06-02T11:10:03.341Z,24.71
2018-06-02T11:12:31.784Z,24.80
2018-06-02T11:15:00.165Z,24.72
2018-06-02T11:17:28.546Z,24.71
2018-06-02T11:19:56.941Z,25.04
2018-06-02T11:22:25.310Z,24.93
2018-06-02T11:24:53.935Z,24.76
2018-06-02T11:27:22.329Z,24.63
2018-06-02T11:29:50.698Z,24.75
2018-06-02T11:32:19.082Z,24.61
2018-06-02T11:34:47.443Z,24.80
2018-06-02T11:37:15.814Z,24.68
2018-06-02T11:39:44.192Z,25.04
2018-06-02T11:42:12.567Z,25.10
2018-06-02T11:44:41.650Z,25.13
2018-06-02T11:47:10.136Z,24.69
2018-06-02T11:49:38.552Z,24.66
2018-06-02T11:52:06.949Z,24.25
2018-06-02T11:54:35.325Z,24.24
2018-06-02T11:57:03.698Z,24.31
2018-06-02T11:59:32.088Z,24.06
2018-06-02T12:02:00.461Z,24.09
2018-06-02T12:04:29.051Z,24.39
2018-06-02T12:06:56.917Z,24.54
2018-06-02T12:09:25.470Z,24.53
2018-06-02T12:11:53.961Z,24.37
2018-06-02T12:14:22.543Z,24.65
2018-06-02T12:16:50.936Z,24.39
2018-06-02T12:19:19.314Z,24.20
2018-06-02T12:21:47.892Z,24.37
2018-06-02T12:24:16.276Z,24.02
2018-06-02T12:26:44.638Z,24.02
2018-06-02T12:29:13.018Z,23.96
2018-06-02T12:31:41.441Z,24.06
2018-06-02T12:34:09.828Z,24.03
2018-06-02T12:36:38.227Z,24.20
2018-06-02T12:39:06.049Z,24.15
2018-06-02T12:41:34.745Z,23.58
2018-06-02T12:44:03.278Z,23.63
2018-06-02T12:46:31.664Z,23.76
2018-06-02T12:49:00.042Z,23.85
2018-06-02T12:51:28.435Z,23.87
2018-06-02T12:53:56.817Z,23.96
2018-06-02T12:56:25.235Z,24.15
2018-06-02T12:58:53.612Z,23.93
2018-06-02T13:01:21.997Z,24.29
2018-06-02T13:03:50.394Z,24.19
2018-06-02T13:06:18.771Z,24.02
2018-06-02T13:08:47.147Z,23.80
2018-06-02T13:11:15.525Z,23.82
2018-06-02T13:13:43.888Z,24.05
2018-06-02T13:16:12.268Z,24.22
2018-06-02T13:18:40.649Z,24.12
2018-06-02T13:21:09.067Z,23.94
2018-06-02T13:23:37.614Z,23.94
2018-06-02T13:26:05.996Z,23.86
2018-06-02T13:28:34.370Z,23.69
2018-06-02T13:31:02.759Z,23.90
2018-06-02T13:33:31.132Z,24.08
2018-06-02T13:35:59.497Z,24.36
2018-06-02T13:38:27.881Z,24.14
2018-06-02T13:40:56.281Z,24.35
2018-06-02T13:43:24.673Z,24.27
2018-06-02T13:45:53.047Z,24.11
2018-06-02T13:48:21.521Z,24.13
2018-06-02T13:50:49.959Z,24.23
2018-06-02T13:53:18.352Z,24.29
2018-06-02T13:55:46.732Z,24.48
2018-06-02T13:58:15.110Z,24.39
2018-06-02T14:00:43.501Z,24.44
2018-06-02T14:03:11.868Z,24.42
2018-06-02T14:05:40.301Z,24.30
2018-06-02T14:08:08.741Z,24.00
2018-06-02T14:10:37.151Z,24.21
2018-06-02T14:13:05.287Z,24.18
2018-06-02T14:15:33.667Z,24.35
2018-06-02T14:18:02.108Z,24.53
2018-06-02T14:20:30.505Z,24.64
2018-06-02T14:22:58.875Z,24.58
2018-06-02T14:25:27.290Z,24.59
2018-06-02T14:27:55.830Z,24.60
2018-06-02T14:30:27.169Z,24.65
2018-06-02T14:32:55.629Z,24.68
2018-06-02T14:35:28.023Z,24.49
2018-06-02T14:37:56.411Z,24.87
2018-06-02T14:40:26.592Z,24.84
2018-06-02T14:42:55.054Z,25.13
2018-06-02T14:45:27.048Z,25.22
2018-06-02T14:47:56.613Z,25.34
2018-06-02T14:50:24.995Z,25.33
2018-06-02T14:52:53.373Z,25.26
2018-06-02T14:55:22.304Z,24.81
2018-06-02T14:57:50.703Z,25.23
2018-06-02T15:00:22.008Z,25.17
2018-06-02T15:02:50.394Z,25.21
2018-06-02T15:05:22.864Z,25.31
2018-06-02T15:07:51.239Z,25.51
2018-06-02T15:10:24.507Z,25.62
2018-06-02T15:12:52.889Z,25.68
2018-06-02T15:15:24.382Z,25.79
2018-06-02T15:17:52.761Z,25.81
2018-06-02T15:20:23.670Z,26.03
2018-06-02T15:22:52.093Z,26.13
2018-06-02T15:25:24.712Z,26.04
2018-06-02T15:27:53.171Z,26.06
2018-06-02T15:30:22.820Z,25.63
2018-06-02T15:32:51.255Z,25.76
2018-06-02T15:35:24.886Z,25.86
2018-06-02T15:37:53.284Z,25.82
2018-06-02T15:40:22.410Z,25.61
2018-06-02T15:42:50.792Z,25.83
2018-06-02T15:45:19.188Z,25.60
2018-06-02T15:47:47.647Z,25.62
2018-06-02T15:50:16.565Z,25.87
2018-06-02T15:52:46.131Z,26.02
2018-06-02T15:55:16.385Z,25.21
2018-06-02T15:57:46.338Z,25.93
2018-06-02T16:00:19.596Z,25.92
2018-06-02T16:02:47.993Z,25.76
2018-06-02T16:05:21.074Z,26.07
2018-06-02T16:07:49.452Z,26.23
2018-06-02T16:10:17.830Z,26.19
2018-06-02T16:12:46.214Z,26.19
2018-06-02T16:15:15.948Z,26.17
2018-06-02T16:17:44.328Z,26.18
2018-06-02T16:20:16.460Z,26.16
2018-06-02T16:22:44.842Z,26.10
2018-06-02T16:27:59.400Z,26.01
2018-06-02T16:30:28.439Z,25.41
2018-06-02T16:32:56.829Z,25.98
2018-06-02T16:35:25.214Z,26.10
2018-06-02T16:37:53.668Z,25.90
2018-06-02T16:40:22.043Z,25.63
2018-06-02T16:42:50.435Z,25.30
2018-06-02T16:47:55.908Z,25.11
2018-06-02T16:50:24.746Z,24.98
2018-06-02T16:52:53.115Z,24.90
2018-06-02T16:55:21.668Z,24.89
2018-06-02T16:57:50.037Z,25.00
2018-06-02T17:00:22.082Z,24.91
2018-06-02T17:02:50.448Z,24.80
2018-06-02T17:05:21.085Z,24.71
2018-06-02T17:07:49.461Z,24.61
2018-06-02T17:13:05.567Z,24.37
2018-06-02T17:15:48.969Z,23.52
2018-06-02T17:18:17.381Z,24.03
2018-06-02T17:21:00.758Z,24.07
2018-06-02T17:23:29.188Z,24.11
2018-06-02T17:25:57.562Z,24.15
2018-06-02T17:28:25.943Z,24.12
2018-06-02T17:30:54.399Z,24.02
2018-06-02T17:33:22.800Z,23.97
2018-06-02T17:35:51.183Z,23.58
2018-06-02T17:38:19.818Z,23.79
2018-06-02T17:40:48.191Z,23.74
2018-06-02T17:43:16.568Z,23.67
2018-06-02T17:45:45.030Z,23.62
2018-06-02T17:48:13.413Z,23.53
2018-06-02T17:50:49.991Z,23.43
2018-06-02T17:53:18.389Z,23.32
2018-06-02T17:56:01.195Z,23.26
2018-06-02T17:58:29.601Z,23.24
2018-06-02T18:00:57.997Z,23.23
2018-06-02T18:03:26.395Z,23.18
2018-06-02T18:05:54.824Z,23.17
2018-06-02T18:08:23.214Z,23.14
2018-06-02T18:10:51.738Z,23.20
2018-06-02T18:13:20.164Z,23.22
2018-06-02T18:15:48.756Z,23.22
2018-06-02T18:18:17.167Z,23.20
2018-06-02T18:20:45.537Z,23.15
2018-06-02T18:23:13.925Z,23.24
2018-06-02T18:25:42.307Z,23.24
2018-06-02T18:28:10.686Z,23.17
2018-06-02T18:30:40.192Z,23.07
2018-06-02T18:33:08.562Z,22.96
2018-06-02T18:35:36.945Z,22.83
2018-06-02T18:38:05.054Z,22.77
2018-06-02T18:40:33.453Z,22.69
2018-06-02T18:43:01.892Z,22.61
2018-06-02T18:45:30.417Z,22.58
2018-06-02T18:47:58.787Z,22.46
2018-06-02T18:50:36.177Z,22.38
2018-06-02T18:53:04.572Z,22.28
2018-06-02T18:55:37.328Z,22.17
2018-06-02T18:58:12.116Z,22.08
2018-06-02T19:00:40.511Z,22.06
2018-06-02T19:03:08.895Z,22.09
2018-06-02T19:05:37.342Z,22.01
2018-06-02T19:08:05.957Z,22.03
2018-06-02T19:10:34.323Z,21.88
2018-06-02T19:13:02.695Z,21.93
2018-06-02T19:15:39.217Z,21.93
2018-06-02T19:18:07.619Z,21.95
2018-06-02T19:23:11.662Z,22.00
2018-06-02T19:25:40.967Z,21.95
2018-06-02T19:28:09.336Z,21.94
2018-06-02T19:30:37.730Z,22.00
2018-06-02T19:33:06.103Z,22.02
2018-06-02T19:35:34.248Z,21.73
2018-06-02T19:38:02.609Z,22.10
2018-06-02T19:40:43.649Z,22.12
2018-06-02T19:43:12.178Z,22.16
2018-06-02T19:45:40.542Z,21.50
2018-06-02T19:48:08.953Z,22.22
2018-06-02T19:50:37.943Z,22.20
2018-06-02T19:53:06.316Z,22.13
2018-06-02T19:55:40.209Z,22.06
2018-06-02T19:58:08.575Z,22.08
2018-06-02T20:00:36.989Z,22.17
2018-06-02T20:03:05.373Z,22.13
2018-06-02T20:05:38.260Z,21.58
2018-06-02T20:08:06.632Z,22.17
2018-06-02T20:10:35.059Z,22.19
2018-06-02T20:13:03.437Z,22.14
2018-06-02T20:15:31.811Z,22.18
2018-06-02T20:18:00.190Z,22.19
2018-06-02T20:23:08.113Z,22.17
2018-06-02T20:25:45.773Z,22.13
2018-06-02T20:28:14.155Z,22.10
2018-06-02T20:30:43.349Z,22.13
2018-06-02T20:33:11.721Z,22.13
2018-06-02T20:35:40.104Z,22.15
2018-06-02T20:38:08.502Z,22.12
2018-06-02T20:43:21.841Z,22.06
2018-06-02T20:45:50.218Z,22.06
2018-06-02T20:48:18.590Z,22.06
2018-06-02T20:50:46.977Z,22.07
2018-06-02T20:53:15.372Z,22.09
2018-06-02T20:55:43.941Z,22.08
2018-06-02T20:58:12.331Z,22.08
2018-06-02T21:00:40.742Z,22.09
2018-06-02T21:03:09.125Z,22.12
2018-06-02T21:05:37.525Z,22.09
2018-06-02T21:08:05.899Z,21.82
2018-06-02T21:10:34.284Z,22.14
2018-06-02T21:13:02.662Z,22.14
2018-06-02T21:15:31.064Z,22.16
2018-06-02T21:17:59.496Z,22.04
2018-06-02T21:26:13.581Z,22.14
2018-06-02T21:28:42.060Z,22.13
2018-06-02T21:31:10.458Z,22.15
2018-06-02T21:33:38.838Z,22.12
2018-06-02T21:36:07.216Z,22.11
2018-06-02T21:38:35.591Z,22.14
2018-06-02T21:41:03.966Z,22.10
2018-06-02T21:43:32.350Z,22.10
2018-06-02T21:46:00.749Z,22.10
2018-06-02T21:48:29.113Z,22.10
2018-06-02T21:50:57.480Z,22.08
2018-06-02T21:53:25.881Z,22.07
2018-06-02T21:55:54.243Z,22.04
2018-06-02T21:58:22.611Z,22.00
2018-06-02T22:00:51.293Z,21.98
2018-06-02T22:03:19.672Z,21.96
2018-06-02T22:05:48.059Z,21.98
2018-06-02T22:08:16.098Z,21.94
2018-06-02T22:10:44.481Z,21.94
2018-06-02T22:13:12.863Z,21.88
2018-06-02T22:15:40.958Z,21.78
2018-06-02T22:18:09.344Z,21.62
2018-06-02T22:20:37.718Z,21.51
2018-06-02T22:23:06.093Z,21.41
2018-06-02T22:25:34.545Z,21.36
2018-06-02T22:28:02.918Z,21.33
2018-06-02T22:30:31.299Z,21.02
2018-06-02T22:32:59.689Z,21.29
2018-06-02T22:35:36.871Z,20.63
2018-06-02T22:38:05.241Z,21.34
2018-06-02T22:40:47.338Z,21.38
2018-06-02T22:43:15.727Z,21.42
2018-06-02T22:45:44.095Z,21.48
2018-06-02T22:48:12.473Z,21.50
2018-06-02T22:50:41.942Z,21.53
2018-06-02T22:53:10.038Z,21.58
2018-06-02T22:55:37.881Z,21.45
2018-06-02T22:58:06.261Z,21.63
2018-06-02T23:03:11.208Z,21.74
2018-06-02T23:05:39.324Z,21.82
2018-06-02T23:08:07.708Z,21.84
2018-06-02T23:10:35.779Z,21.56
2018-06-02T23:13:04.157Z,21.54
2018-06-02T23:15:32.536Z,21.95
2018-06-02T23:18:00.921Z,22.01
2018-06-02T23:20:30.203Z,21.46
2018-06-02T23:22:58.607Z,22.05
2018-06-02T23:25:26.976Z,21.97
2018-06-02T23:27:55.372Z,21.69
2018-06-02T23:30:32.302Z,21.48
2018-06-02T23:33:00.661Z,21.84
2018-06-02T23:35:35.486Z,21.82
2018-06-02T23:38:03.868Z,21.83
2018-06-02T23:40:35.603Z,21.86
2018-06-02T23:43:04.030Z,21.78
2018-06-02T23:45:36.480Z,21.77
2018-06-02T23:48:04.310Z,21.75
2018-06-02T23:50:34.218Z,21.74
2018-06-02T23:53:02.598Z,21.70
2018-06-02T23:55:33.225Z,21.73
2018-06-02T23:58:01.601Z,21.76
